createdAt,value
2022-12-18T00:02:14.094Z,17.85
2022-12-18T00:04:40.753Z,15.30
2022-12-18T00:07:07.493Z,14.90
2022-12-18T00:09:39.603Z,15.05
2022-12-18T00:14:45.370Z,16.17
2022-12-18T00:17:12.193Z,14.98
2022-12-18T00:19:38.845Z,14.93
2022-12-18T00:22:06.941Z,14.75
2022-12-18T00:24:33.605Z,16.70
2022-12-18T00:27:00.218Z,14.45
2022-12-18T00:29:27.149Z,18.33
2022-12-18T05:31:29.172Z,370.45
2022-12-18T05:33:56.114Z,369.25
2022-12-18T05:36:22.749Z,371.17
2022-12-18T05:38:49.941Z,376.50
2022-12-18T05:41:16.776Z,368.55
2022-12-18T05:43:44.287Z,335.92
2022-12-18T05:46:18.431Z,304.00
2022-12-18T05:48:46.341Z,228.05
2022-12-18T05:51:16.082Z,189.20
2022-12-18T05:53:44.040Z,155.48
2022-12-18T05:56:18.855Z,150.80
2022-12-18T05:58:45.654Z,72.80
2022-12-18T06:06:21.418Z,355.40
2022-12-18T06:08:48.599Z,182.18
2022-12-18T06:11:18.802Z,23.65
2022-12-18T06:21:05.915Z,377.60
2022-12-18T06:25:59.113Z,385.80
2022-12-18T06:33:18.964Z,403.20
2022-12-18T06:35:45.654Z,402.50
2022-12-18T06:38:12.313Z,404.30
2022-12-18T06:40:40.145Z,399.77
2022-12-18T06:43:07.314Z,401.30
2022-12-18T06:45:34.187Z,389.10
2022-12-18T06:48:01.311Z,371.00
2022-12-18T06:50:28.093Z,405.60
2022-12-18T06:52:54.675Z,405.67
2022-12-18T06:55:21.338Z,396.13
2022-12-18T06:57:47.977Z,391.70
2022-12-18T09:08:27.928Z,446.60
2022-12-18T10:36:14.147Z,452.60
2022-12-18T12:03:56.522Z,411.05
2022-12-18T12:06:39.651Z,420.65
2022-12-18T12:45:49.959Z,458.65
2022-12-18T12:50:53.422Z,477.60
2022-12-18T12:55:55.518Z,466.70
2022-12-18T13:01:19.927Z,458.63
2022-12-18T13:09:12.917Z,439.30
2022-12-18T13:12:06.364Z,435.35
2022-12-18T13:14:40.860Z,453.70
2022-12-18T13:17:22.718Z,445.95
2022-12-18T13:20:10.927Z,455.00
2022-12-18T13:25:28.665Z,468.85
2022-12-18T13:33:16.292Z,469.50
2022-12-18T13:43:58.153Z,467.25
2022-12-18T13:59:34.717Z,455.80
2022-12-18T14:09:31.943Z,421.40
2022-12-18T14:27:26.403Z,445.80
2022-12-18T14:32:21.435Z,466.70
2022-12-18T15:02:56.602Z,437.60
2022-12-18T15:12:51.006Z,430.20
2022-12-18T15:15:38.594Z,457.40
2022-12-18T15:18:12.610Z,448.00
2022-12-18T15:31:22.226Z,464.47
2022-12-18T15:33:54.958Z,465.00
2022-12-18T15:36:26.702Z,463.67
2022-12-18T15:38:56.171Z,473.60
2022-12-18T15:41:36.501Z,470.00
2022-12-18T15:46:31.744Z,469.00
2022-12-18T15:54:01.644Z,470.20
2022-12-18T15:59:16.145Z,483.20
2022-12-18T16:04:13.927Z,469.53
2022-12-18T16:11:54.127Z,465.13
2022-12-18T16:14:27.490Z,475.10
2022-12-18T16:26:46.673Z,452.75
2022-12-18T16:31:39.853Z,480.63
2022-12-18T16:44:18.798Z,478.20
2022-12-18T16:46:49.002Z,471.43
2022-12-18T16:49:17.971Z,475.40
2022-12-18T16:51:46.522Z,465.05
2022-12-18T16:54:18.614Z,478.45
2022-12-18T16:56:47.784Z,475.10
2022-12-18T17:01:41.966Z,466.47
2022-12-18T17:04:09.519Z,479.30
2022-12-18T17:06:41.020Z,472.40
2022-12-18T17:09:12.145Z,490.10
2022-12-18T17:11:38.838Z,486.33
2022-12-18T17:14:15.964Z,481.65
2022-12-18T17:16:42.950Z,477.40
2022-12-18T17:19:16.621Z,485.23
2022-12-18T17:21:50.223Z,477.98
2022-12-18T17:26:45.429Z,468.17
2022-12-18T17:29:19.927Z,485.90
2022-12-18T17:31:47.890Z,473.13
2022-12-18T17:34:15.515Z,433.75
2022-12-18T17:36:42.344Z,465.87
2022-12-18T17:39:11.692Z,434.13
2022-12-18T17:41:38.348Z,470.63
2022-12-18T17:44:06.099Z,461.58
2022-12-18T17:46:34.097Z,455.70
2022-12-18T17:49:02.634Z,451.47
2022-12-18T17:51:30.175Z,453.63
2022-12-18T17:53:56.831Z,463.05
2022-12-18T17:56:24.650Z,459.55
2022-12-18T17:58:52.237Z,466.10
2022-12-18T18:01:25.007Z,467.30
2022-12-18T18:03:54.131Z,455.00
2022-12-18T18:06:21.852Z,466.20
2022-12-18T18:08:48.993Z,459.87
2022-12-18T18:11:36.655Z,450.80
2022-12-18T18:16:44.620Z,464.77
2022-12-18T18:19:14.993Z,463.60
2022-12-18T18:21:44.597Z,465.80
2022-12-18T18:24:14.219Z,455.05
2022-12-18T18:26:44.233Z,466.43
2022-12-18T18:29:17.418Z,465.00
2022-12-18T18:31:44.358Z,469.20
2022-12-18T18:34:20.135Z,460.70
2022-12-18T18:39:14.010Z,455.10
2022-12-18T18:41:41.340Z,456.00
2022-12-18T18:49:08.150Z,462.00
2022-12-18T18:54:02.586Z,453.05
2022-12-18T19:01:43.128Z,467.20
2022-12-18T19:04:10.246Z,468.40
2022-12-18T19:11:50.356Z,464.23
2022-12-18T19:14:17.729Z,460.50
2022-12-18T19:16:45.434Z,466.70
2022-12-18T19:19:13.111Z,460.70
2022-12-18T19:26:33.373Z,468.00
2022-12-18T19:29:08.425Z,472.70
2022-12-18T19:36:36.368Z,460.40
2022-12-18T19:56:29.808Z,458.55
2022-12-18T19:58:56.673Z,454.90
2022-12-18T20:01:25.312Z,460.98
2022-12-18T20:08:52.956Z,462.40
2022-12-18T20:11:26.175Z,453.80
2022-12-18T20:18:46.375Z,464.80
2022-12-18T20:21:14.215Z,454.05
2022-12-18T20:26:08.826Z,471.50
2022-12-18T20:28:35.821Z,467.30
2022-12-18T20:40:58.557Z,469.10
2022-12-18T20:43:25.219Z,472.10
2022-12-18T20:45:51.845Z,469.13
2022-12-18T20:48:23.574Z,485.05
2022-12-18T20:51:05.667Z,479.30
2022-12-18T20:53:34.193Z,484.00
2022-12-18T20:56:02.140Z,473.00
2022-12-18T21:01:12.796Z,487.00
2022-12-18T21:03:41.302Z,481.90
2022-12-18T21:06:09.315Z,457.08
2022-12-18T21:08:36.697Z,476.90
2022-12-18T21:11:40.209Z,491.10
2022-12-18T21:14:21.539Z,464.37
2022-12-18T21:16:48.861Z,466.77
2022-12-18T21:19:18.639Z,486.75
2022-12-18T21:21:45.713Z,467.02
2022-12-18T21:24:12.958Z,474.50
2022-12-18T21:26:45.244Z,483.88
2022-12-18T21:29:15.303Z,473.25
2022-12-18T21:36:40.618Z,479.40
2022-12-18T21:39:07.250Z,485.50
2022-12-18T21:44:22.398Z,471.38
2022-12-18T21:46:55.675Z,465.73
2022-12-18T21:49:25.225Z,471.50
2022-12-18T21:51:54.388Z,473.55
2022-12-18T21:54:21.334Z,470.77
2022-12-18T21:57:02.431Z,484.67
2022-12-18T21:59:40.197Z,476.70
2022-12-18T22:02:19.867Z,478.15
2022-12-18T22:04:47.318Z,471.20
2022-12-18T22:07:16.904Z,467.73
2022-12-18T22:09:43.725Z,476.98
2022-12-18T22:12:12.751Z,478.15
2022-12-18T22:14:39.372Z,482.60
2022-12-18T22:17:06.036Z,483.70
2022-12-18T22:19:38.114Z,486.90
2022-12-18T22:22:09.391Z,490.70
2022-12-18T22:27:02.669Z,491.20
2022-12-18T22:35:03.233Z,489.05
2022-12-18T22:37:32.949Z,482.40
2022-12-18T22:42:30.464Z,489.30
2022-12-18T22:44:57.090Z,485.83
2022-12-18T22:47:29.201Z,477.20
2022-12-18T22:49:56.286Z,471.23
2022-12-18T22:52:24.923Z,489.85
2022-12-18T22:54:53.336Z,488.40
2022-12-18T22:57:21.508Z,479.90
2022-12-18T22:59:48.154Z,483.70
2022-12-18T23:02:14.976Z,489.90
2022-12-18T23:07:08.355Z,486.87
2022-12-18T23:09:35.190Z,485.70
2022-12-18T23:12:02.744Z,480.40
2022-12-18T23:14:30.374Z,483.60
2022-12-18T23:16:57.206Z,480.47
2022-12-18T23:19:24.142Z,480.00
2022-12-18T23:24:18.161Z,483.90
2022-12-18T23:26:44.788Z,487.50
